Airport View

Enter AWOS ICAO identifier for current METAR.

ex. KFNL

KCEY 250045Z AUTO 16009KT 10SM CLR 24/17 A2996 RMK AO1

25 May 2020 00:51

Frequency: 119.975

Phone: 270-489-2424

Other Area AWOS: KM25 - KPHT - KPAH - KUCY

TAF KPAH 242320Z 2500/2524 18008KT P6SM FEW035 FEW200 FM250300 VRB04KT P6SM FEW040 FEW200 FM251500 18006KT P6SM VCTS FEW040CB SCT200 FM251800 17009KT P6SM -SHRA VCTS SCT040CB BKN200